createdAt,value
2019-05-30T00:02:00.486Z,5.70
2019-05-30T00:04:30.512Z,5.50
2019-05-30T00:07:00.582Z,4.90
2019-05-30T00:09:30.463Z,5.40
2019-05-30T00:12:00.803Z,5.60
2019-05-30T00:14:49.970Z,5.60
2019-05-30T00:17:19.786Z,5.33
2019-05-30T00:19:49.607Z,5.80
2019-05-30T00:22:19.434Z,5.30
2019-05-30T00:24:51.306Z,5.80
2019-05-30T00:27:21.298Z,5.13
2019-05-30T00:29:52.327Z,5.43
2019-05-30T00:32:22.733Z,6.53
2019-05-30T00:34:55.548Z,6.00
2019-05-30T00:37:26.448Z,5.40
2019-05-30T00:39:57.821Z,6.10
2019-05-30T00:42:28.005Z,6.23
2019-05-30T00:45:00.438Z,6.30
2019-05-30T00:47:30.779Z,5.60
2019-05-30T00:50:02.749Z,5.97
2019-05-30T00:52:33.052Z,6.53
2019-05-30T00:55:04.666Z,6.40
2019-05-30T00:57:34.894Z,6.53
2019-05-30T01:00:07.097Z,6.27
2019-05-30T01:02:37.919Z,6.30
2019-05-30T01:05:08.754Z,6.43
2019-05-30T01:07:38.562Z,6.40
2019-05-30T01:10:10.765Z,7.37
2019-05-30T01:13:05.222Z,5.70
2019-05-30T01:15:35.267Z,6.47
2019-05-30T01:18:05.490Z,5.80
2019-05-30T01:20:35.598Z,5.57
2019-05-30T01:23:07.505Z,6.70
2019-05-30T01:25:41.424Z,5.40
2019-05-30T01:28:11.268Z,6.00
2019-05-30T01:30:41.263Z,6.07
2019-05-30T01:33:12.043Z,6.97
2019-05-30T01:35:42.118Z,6.03
2019-05-30T01:38:12.450Z,6.13
2019-05-30T01:40:42.595Z,6.33
2019-05-30T01:43:12.723Z,6.83
2019-05-30T01:45:42.859Z,6.20
2019-05-30T01:48:13.062Z,6.13
2019-05-30T01:50:42.827Z,6.20
2019-05-30T01:53:32.270Z,6.17
2019-05-30T01:56:02.739Z,5.70
2019-05-30T01:58:32.809Z,5.93
2019-05-30T02:01:17.972Z,6.20
2019-05-30T02:03:37.182Z,5.37
2019-05-30T02:06:28.841Z,6.23
2019-05-30T02:08:59.196Z,6.53
2019-05-30T02:11:29.340Z,6.40
2019-05-30T02:14:03.501Z,5.93
2019-05-30T02:16:35.294Z,5.60
2019-05-30T02:19:12.707Z,5.23
2019-05-30T02:21:41.494Z,6.17
2019-05-30T02:24:12.173Z,6.30
2019-05-30T02:26:42.417Z,5.90
2019-05-30T02:29:12.150Z,6.10
2019-05-30T02:31:41.971Z,5.83
2019-05-30T02:34:14.531Z,5.53
2019-05-30T02:36:44.373Z,5.50
2019-05-30T02:39:14.730Z,5.90
2019-05-30T02:41:45.075Z,6.47
2019-05-30T02:44:16.502Z,5.90
2019-05-30T02:46:47.297Z,5.50
2019-05-30T02:49:17.690Z,6.13
2019-05-30T02:51:47.428Z,5.83
2019-05-30T02:54:17.856Z,6.37
2019-05-30T02:56:47.686Z,5.47
2019-05-30T02:59:17.690Z,6.20
2019-05-30T03:02:00.944Z,6.00
2019-05-30T03:04:19.391Z,5.80
2019-05-30T03:06:49.325Z,5.53
2019-05-30T03:09:19.163Z,6.20
2019-05-30T03:11:49.674Z,5.97
2019-05-30T03:14:20.928Z,6.77
2019-05-30T03:16:50.782Z,5.90
2019-05-30T03:19:21.176Z,5.47
2019-05-30T03:21:51.011Z,5.40
2019-05-30T03:24:21.196Z,6.67
2019-05-30T03:26:51.061Z,6.00
2019-05-30T03:29:20.967Z,5.90
2019-05-30T03:31:51.588Z,5.27
2019-05-30T03:34:27.428Z,6.77
2019-05-30T03:36:53.018Z,6.20
2019-05-30T03:39:22.917Z,5.93
2019-05-30T03:41:52.740Z,6.17
2019-05-30T03:44:22.551Z,6.10
2019-05-30T03:46:54.843Z,6.90
2019-05-30T03:49:27.784Z,6.30
2019-05-30T03:52:01.538Z,6.03
2019-05-30T03:54:33.639Z,5.90
2019-05-30T03:57:31.738Z,5.10
2019-05-30T04:00:06.138Z,6.20
2019-05-30T04:02:58.010Z,5.40
2019-05-30T04:05:38.614Z,7.50
2019-05-30T04:08:16.361Z,5.90
2019-05-30T04:10:51.504Z,6.90
2019-05-30T04:13:43.245Z,5.43
2019-05-30T04:16:19.757Z,6.17
2019-05-30T04:18:50.331Z,5.63
2019-05-30T04:21:21.858Z,6.57
2019-05-30T04:23:52.804Z,6.27
2019-05-30T04:26:23.989Z,6.10
2019-05-30T04:28:53.881Z,5.90
2019-05-30T04:31:23.557Z,5.67
2019-05-30T04:33:53.383Z,5.80
2019-05-30T04:36:23.485Z,6.80
2019-05-30T04:38:53.915Z,5.90
2019-05-30T04:41:24.071Z,6.10
2019-05-30T04:43:53.823Z,6.90
2019-05-30T04:46:23.817Z,5.67
2019-05-30T04:48:54.250Z,6.23
2019-05-30T04:51:24.082Z,6.00
2019-05-30T04:53:53.903Z,5.53
2019-05-30T04:56:24.055Z,5.73
2019-05-30T04:58:54.339Z,5.87
2019-05-30T05:01:24.765Z,6.60
2019-05-30T05:03:54.530Z,5.63
2019-05-30T05:06:24.755Z,6.00
2019-05-30T05:08:54.578Z,6.40
2019-05-30T05:11:25.419Z,6.70
2019-05-30T05:13:55.465Z,6.60
2019-05-30T05:16:34.978Z,6.33
2019-05-30T05:18:56.980Z,6.30
2019-05-30T05:21:27.170Z,5.93
2019-05-30T05:23:57.014Z,6.07
2019-05-30T05:26:26.973Z,5.80
2019-05-30T05:28:57.059Z,5.20
2019-05-30T05:31:27.363Z,5.97
2019-05-30T05:33:57.703Z,5.63
2019-05-30T05:36:27.865Z,6.13
2019-05-30T05:38:57.702Z,6.53
2019-05-30T05:41:28.603Z,6.10
2019-05-30T05:43:58.529Z,6.13
2019-05-30T05:46:28.734Z,6.07
2019-05-30T05:48:58.636Z,6.30
2019-05-30T05:51:29.011Z,5.47
2019-05-30T05:53:59.078Z,5.57
2019-05-30T05:56:29.223Z,6.20
2019-05-30T05:58:59.154Z,5.70
2019-05-30T06:01:30.083Z,5.60
2019-05-30T06:04:12.756Z,6.10
2019-05-30T06:06:31.824Z,6.13
2019-05-30T06:09:01.593Z,5.10
2019-05-30T06:11:31.386Z,5.37
2019-05-30T06:14:01.251Z,5.80
2019-05-30T06:16:31.231Z,4.90
2019-05-30T06:19:01.475Z,4.83
2019-05-30T06:21:31.410Z,5.03
2019-05-30T06:24:01.559Z,5.33
2019-05-30T06:26:33.712Z,5.10
2019-05-30T06:29:03.779Z,4.90
2019-05-30T06:31:33.937Z,5.60
2019-05-30T06:34:03.780Z,5.10
2019-05-30T06:36:33.674Z,4.70
2019-05-30T06:39:05.114Z,5.47
2019-05-30T06:41:35.234Z,4.90
2019-05-30T06:44:05.844Z,4.10
2019-05-30T06:46:35.805Z,4.37
2019-05-30T06:49:05.926Z,5.23
2019-05-30T06:51:36.027Z,4.13
2019-05-30T06:54:06.124Z,4.40
2019-05-30T06:56:36.439Z,3.93
2019-05-30T06:59:06.324Z,3.80
2019-05-30T07:01:36.135Z,3.70
2019-05-30T07:04:06.322Z,4.13
2019-05-30T07:06:36.663Z,3.63
2019-05-30T07:09:08.651Z,3.30
2019-05-30T07:11:38.521Z,3.97
2019-05-30T07:14:08.729Z,3.63
2019-05-30T07:16:38.520Z,3.43
2019-05-30T07:19:12.060Z,3.53
2019-05-30T07:21:41.886Z,3.80
2019-05-30T07:24:12.170Z,3.63
2019-05-30T07:26:42.290Z,3.23
2019-05-30T07:29:12.210Z,3.70
2019-05-30T07:31:42.287Z,3.50
2019-05-30T07:34:12.741Z,3.63
2019-05-30T07:36:42.574Z,24.47
2019-05-30T07:39:12.957Z,10.47
2019-05-30T07:41:43.050Z,8.40
2019-05-30T07:44:12.897Z,3.80
2019-05-30T07:46:42.733Z,4.07
2019-05-30T07:49:12.594Z,4.10
2019-05-30T07:51:42.936Z,3.70
2019-05-30T07:54:12.802Z,4.40
2019-05-30T07:56:43.205Z,6.57
2019-05-30T07:59:13.374Z,5.03
2019-05-30T08:01:43.227Z,7.63
2019-05-30T08:04:13.070Z,6.63
2019-05-30T08:06:42.945Z,5.13
2019-05-30T08:09:12.746Z,3.63
2019-05-30T08:11:42.715Z,4.80
2019-05-30T08:14:12.605Z,4.50
2019-05-30T08:16:42.513Z,4.30
2019-05-30T08:19:12.337Z,4.60
2019-05-30T08:21:42.118Z,3.93
2019-05-30T08:24:11.956Z,4.30
2019-05-30T08:26:41.874Z,3.70
2019-05-30T08:29:11.734Z,3.70
2019-05-30T08:31:41.562Z,7.27
2019-05-30T08:34:11.462Z,6.33
2019-05-30T08:36:41.381Z,3.73
2019-05-30T08:39:11.647Z,3.90
2019-05-30T08:41:42.194Z,3.70
2019-05-30T08:44:11.956Z,3.80
2019-05-30T08:46:41.860Z,3.63
2019-05-30T08:49:11.724Z,3.60
2019-05-30T08:51:41.686Z,3.20
2019-05-30T08:54:13.727Z,3.40
2019-05-30T08:56:43.134Z,3.10
2019-05-30T08:59:12.991Z,3.40
2019-05-30T09:01:43.900Z,3.30
2019-05-30T09:04:14.101Z,2.97
2019-05-30T09:06:44.215Z,3.43
2019-05-30T09:09:14.176Z,2.70
2019-05-30T09:11:44.434Z,3.23
2019-05-30T09:14:14.457Z,3.07
2019-05-30T09:16:44.685Z,2.70
2019-05-30T09:19:15.970Z,3.00
2019-05-30T09:21:45.881Z,2.33
2019-05-30T09:24:15.783Z,2.77
2019-05-30T09:26:48.742Z,3.23
2019-05-30T09:29:17.277Z,2.77
2019-05-30T09:31:48.616Z,3.10
2019-05-30T09:34:20.179Z,2.80
2019-05-30T09:36:50.344Z,2.80
2019-05-30T09:39:20.266Z,2.43
2019-05-30T09:41:50.503Z,2.80
2019-05-30T09:44:20.362Z,2.97
2019-05-30T09:46:50.534Z,2.43
2019-05-30T09:49:20.574Z,2.33
2019-05-30T09:51:51.136Z,2.67
2019-05-30T09:54:21.148Z,2.30
2019-05-30T09:56:51.676Z,2.30
2019-05-30T09:59:22.512Z,2.77
2019-05-30T10:01:52.652Z,2.17
2019-05-30T10:04:22.556Z,1.97
2019-05-30T10:06:52.577Z,2.13
2019-05-30T10:09:22.469Z,2.00
2019-05-30T10:11:53.476Z,2.20
2019-05-30T10:14:23.591Z,2.13
2019-05-30T10:16:56.521Z,2.30
2019-05-30T10:19:24.983Z,1.57
2019-05-30T10:21:54.742Z,1.80
2019-05-30T10:24:24.599Z,2.10
2019-05-30T10:26:54.519Z,1.70
2019-05-30T10:29:24.680Z,2.10
2019-05-30T10:31:54.522Z,1.93
2019-05-30T10:34:24.355Z,2.10
2019-05-30T10:36:54.210Z,1.90
2019-05-30T10:39:24.037Z,2.00
2019-05-30T10:41:53.875Z,1.60
2019-05-30T10:44:23.730Z,1.93
2019-05-30T10:46:54.556Z,1.90
2019-05-30T10:49:34.163Z,2.20
2019-05-30T10:51:59.234Z,2.03
2019-05-30T10:54:28.467Z,2.13
2019-05-30T10:56:58.579Z,1.90
2019-05-30T10:59:28.881Z,1.87
2019-05-30T11:01:58.750Z,1.80
2019-05-30T11:04:28.675Z,2.27
2019-05-30T11:07:12.290Z,1.63
2019-05-30T11:09:46.608Z,1.80
2019-05-30T11:12:16.526Z,1.40
2019-05-30T11:14:46.833Z,2.37
2019-05-30T11:17:18.026Z,1.30
2019-05-30T11:19:47.751Z,1.70
2019-05-30T11:22:17.610Z,1.73
2019-05-30T11:24:48.172Z,1.50
2019-05-30T11:27:18.562Z,1.73
2019-05-30T11:29:48.733Z,1.60
2019-05-30T11:32:18.731Z,1.10
2019-05-30T11:34:49.012Z,1.50
2019-05-30T11:37:19.353Z,1.67
2019-05-30T11:39:49.127Z,1.40
2019-05-30T11:42:18.978Z,1.30
2019-05-30T11:44:49.711Z,1.20
2019-05-30T11:47:19.870Z,1.20
2019-05-30T11:49:49.659Z,1.50
2019-05-30T11:52:19.412Z,1.33
2019-05-30T11:54:52.048Z,1.20
2019-05-30T11:57:21.960Z,1.23
2019-05-30T11:59:52.137Z,1.40
2019-05-30T12:02:22.636Z,1.20
2019-05-30T12:04:52.737Z,1.17
2019-05-30T12:07:35.943Z,1.53
2019-05-30T12:09:54.844Z,1.30
2019-05-30T12:12:24.854Z,1.30
2019-05-30T12:14:55.256Z,1.40
2019-05-30T12:17:25.473Z,1.57
2019-05-30T12:19:56.044Z,1.30
2019-05-30T12:22:26.538Z,2.10
2019-05-30T12:24:56.362Z,1.20
2019-05-30T12:27:26.729Z,1.37
2019-05-30T12:29:56.787Z,1.37
2019-05-30T12:32:26.904Z,1.73
2019-05-30T12:34:58.350Z,1.50
2019-05-30T12:37:28.691Z,1.00
2019-05-30T12:39:58.726Z,1.40
2019-05-30T12:42:28.904Z,1.60
2019-05-30T12:44:59.107Z,1.33
2019-05-30T12:47:28.964Z,1.60
2019-05-30T12:49:59.486Z,2.10
2019-05-30T12:52:29.699Z,1.37
2019-05-30T12:55:00.850Z,1.60
2019-05-30T12:57:30.930Z,1.63
2019-05-30T13:00:01.023Z,1.80
2019-05-30T13:02:31.318Z,1.23
2019-05-30T13:05:01.452Z,1.40
2019-05-30T13:07:31.301Z,1.20
2019-05-30T13:10:01.403Z,1.57
2019-05-30T13:12:31.592Z,1.53
2019-05-30T13:15:02.016Z,1.50
2019-05-30T13:17:32.565Z,1.23
2019-05-30T13:20:22.031Z,1.40
2019-05-30T13:22:52.510Z,1.63
2019-05-30T13:25:23.123Z,1.63
2019-05-30T13:27:53.255Z,1.50
2019-05-30T13:30:23.717Z,1.43
2019-05-30T13:32:53.630Z,1.47
2019-05-30T13:35:23.789Z,1.60
2019-05-30T13:37:54.199Z,1.53
2019-05-30T13:40:25.695Z,1.40
2019-05-30T13:42:55.729Z,1.50
2019-05-30T13:45:25.587Z,1.43
2019-05-30T13:47:56.275Z,1.57
2019-05-30T13:50:26.182Z,1.60
2019-05-30T13:52:55.946Z,1.13
2019-05-30T13:55:28.156Z,3.73
2019-05-30T13:57:57.889Z,1.30
2019-05-30T14:00:28.159Z,1.43
2019-05-30T14:02:58.035Z,2.03
2019-05-30T14:05:27.899Z,1.60
2019-05-30T14:07:58.056Z,1.57
2019-05-30T14:10:28.228Z,1.90
2019-05-30T14:12:58.129Z,1.83
2019-05-30T14:15:28.095Z,1.60
2019-05-30T14:18:00.936Z,1.43
2019-05-30T14:20:30.921Z,2.37
2019-05-30T14:23:01.277Z,1.90
2019-05-30T14:25:31.603Z,2.07
2019-05-30T14:28:02.034Z,1.80
2019-05-30T14:30:32.205Z,1.73
2019-05-30T14:33:02.157Z,2.00
2019-05-30T14:35:32.161Z,1.60
2019-05-30T14:38:02.567Z,1.97
2019-05-30T14:40:32.453Z,2.00
2019-05-30T14:43:03.234Z,1.90
2019-05-30T14:45:33.268Z,1.73
2019-05-30T14:48:04.496Z,1.70
2019-05-30T14:50:34.466Z,2.00
2019-05-30T14:53:04.688Z,1.90
2019-05-30T14:55:35.092Z,2.13
2019-05-30T14:58:07.041Z,2.03
2019-05-30T15:00:37.128Z,2.00
2019-05-30T15:03:09.201Z,1.90
2019-05-30T15:05:38.630Z,1.93
2019-05-30T15:08:08.546Z,1.90
2019-05-30T15:10:38.770Z,1.93
2019-05-30T15:13:09.684Z,1.70
2019-05-30T15:15:39.746Z,2.10
2019-05-30T15:18:09.642Z,2.00
2019-05-30T15:20:39.784Z,2.40
2019-05-30T15:23:10.300Z,2.10
2019-05-30T15:25:40.899Z,2.10
2019-05-30T15:28:12.201Z,2.80
2019-05-30T15:30:42.453Z,2.77
2019-05-30T15:33:13.068Z,2.50
2019-05-30T15:35:42.893Z,2.63
2019-05-30T15:38:13.380Z,2.30
2019-05-30T15:40:43.568Z,2.80
2019-05-30T15:43:14.122Z,3.10
2019-05-30T15:45:44.651Z,3.00
2019-05-30T15:48:16.298Z,2.57
2019-05-30T15:50:46.381Z,2.63
2019-05-30T15:53:17.275Z,2.63
2019-05-30T15:55:47.409Z,2.63
2019-05-30T15:58:18.170Z,2.70
2019-05-30T16:00:48.371Z,2.37
2019-05-30T16:03:18.474Z,2.83
2019-05-30T16:05:48.611Z,2.60
2019-05-30T16:08:19.281Z,2.73
2019-05-30T16:10:50.460Z,2.60
2019-05-30T16:13:21.482Z,2.73
2019-05-30T16:15:51.854Z,3.17
2019-05-30T16:18:22.126Z,2.97
2019-05-30T16:20:52.046Z,3.20
2019-05-30T16:23:22.801Z,2.70
2019-05-30T16:25:53.014Z,2.80
2019-05-30T16:28:22.903Z,3.20
2019-05-30T16:30:53.680Z,2.43
2019-05-30T16:33:23.627Z,2.40
2019-05-30T16:35:53.834Z,2.70
2019-05-30T16:38:23.746Z,2.73
2019-05-30T16:40:53.622Z,2.50
2019-05-30T16:43:23.515Z,2.60
2019-05-30T16:45:53.413Z,2.67
2019-05-30T16:48:23.691Z,3.03
2019-05-30T16:50:53.597Z,3.10
2019-05-30T16:53:25.826Z,2.70
2019-05-30T16:55:55.214Z,2.40
2019-05-30T16:58:25.820Z,2.60
2019-05-30T17:00:55.789Z,2.63
2019-05-30T17:03:26.118Z,2.50
2019-05-30T17:05:57.459Z,2.50
2019-05-30T17:08:27.770Z,2.43
2019-05-30T17:10:57.641Z,2.40
2019-05-30T17:13:30.612Z,2.90
2019-05-30T17:15:59.158Z,2.40
2019-05-30T17:18:29.068Z,2.63
2019-05-30T17:20:58.918Z,2.53
2019-05-30T17:23:28.923Z,2.63
2019-05-30T17:25:58.815Z,2.57
2019-05-30T17:28:28.767Z,2.73
2019-05-30T17:30:58.632Z,2.67
2019-05-30T17:33:28.511Z,2.57
2019-05-30T17:35:58.450Z,2.60
2019-05-30T17:38:28.823Z,2.47
2019-05-30T17:40:58.773Z,2.47
2019-05-30T17:43:29.277Z,3.43
2019-05-30T17:45:59.921Z,2.77
2019-05-30T17:48:29.893Z,2.57
2019-05-30T17:50:59.759Z,2.60
2019-05-30T17:53:30.051Z,2.23
2019-05-30T17:56:00.091Z,2.20
2019-05-30T17:58:30.243Z,2.90
2019-05-30T18:01:00.266Z,2.43
2019-05-30T18:03:30.615Z,3.00
2019-05-30T18:06:00.684Z,2.13
2019-05-30T18:08:31.399Z,2.20
2019-05-30T18:11:01.497Z,2.60
2019-05-30T18:13:31.399Z,3.30
2019-05-30T18:16:01.297Z,2.93
2019-05-30T18:18:40.176Z,2.53
2019-05-30T18:21:10.024Z,3.03
2019-05-30T18:23:39.893Z,3.20
2019-05-30T18:26:10.366Z,3.80
2019-05-30T18:28:40.323Z,4.23
2019-05-30T18:31:11.070Z,2.70
2019-05-30T18:33:41.278Z,4.17
2019-05-30T18:36:11.247Z,2.80
2019-05-30T18:38:41.208Z,3.20
2019-05-30T18:41:14.210Z,3.33
2019-05-30T18:43:42.659Z,2.70
2019-05-30T18:46:12.614Z,4.00
2019-05-30T18:48:42.784Z,3.80
2019-05-30T18:51:12.687Z,4.00
2019-05-30T18:53:42.551Z,2.90
2019-05-30T18:56:12.783Z,3.40
2019-05-30T18:58:42.644Z,4.10
2019-05-30T19:01:13.886Z,4.40
2019-05-30T19:03:43.954Z,4.23
2019-05-30T19:06:13.802Z,3.40
2019-05-30T19:08:44.371Z,3.40
2019-05-30T19:11:27.096Z,2.83
2019-05-30T19:13:46.714Z,3.00
2019-05-30T19:16:16.910Z,2.97
2019-05-30T19:18:46.770Z,2.93
2019-05-30T19:21:16.639Z,3.13
2019-05-30T19:23:46.834Z,2.80
2019-05-30T19:26:16.719Z,3.50
2019-05-30T19:28:46.639Z,3.27
2019-05-30T19:31:16.510Z,3.60
2019-05-30T19:33:46.634Z,3.27
2019-05-30T19:36:16.828Z,3.43
2019-05-30T19:38:46.695Z,2.97
2019-05-30T19:41:16.830Z,2.90
2019-05-30T19:43:46.971Z,3.23
2019-05-30T19:46:17.000Z,3.20
2019-05-30T19:49:05.950Z,3.50
2019-05-30T19:51:36.900Z,3.30
2019-05-30T19:54:07.082Z,3.67
2019-05-30T19:56:39.965Z,2.83
2019-05-30T19:59:09.017Z,2.83
2019-05-30T20:01:40.044Z,3.27
2019-05-30T20:04:10.262Z,2.83
2019-05-30T20:06:40.852Z,2.70
2019-05-30T20:09:11.154Z,2.77
2019-05-30T20:11:41.626Z,3.47
2019-05-30T20:14:11.631Z,4.10
2019-05-30T20:16:42.050Z,3.33
2019-05-30T20:19:12.218Z,3.80
2019-05-30T20:21:42.354Z,3.60
2019-05-30T20:24:12.195Z,3.70
2019-05-30T20:26:42.858Z,4.13
2019-05-30T20:29:13.632Z,3.47
2019-05-30T20:31:44.085Z,4.37
2019-05-30T20:34:13.957Z,3.63
2019-05-30T20:36:44.467Z,3.57
2019-05-30T20:39:14.545Z,3.77
2019-05-30T20:41:44.583Z,3.90
2019-05-30T20:44:14.415Z,3.97
2019-05-30T20:46:44.262Z,4.00
2019-05-30T20:49:14.118Z,3.90
2019-05-30T20:51:43.987Z,4.00
2019-05-30T20:54:14.945Z,4.33
2019-05-30T20:56:48.583Z,3.50
2019-05-30T20:59:16.285Z,4.20
2019-05-30T21:01:46.137Z,3.83
2019-05-30T21:04:16.197Z,3.70
2019-05-30T21:06:47.789Z,4.07
2019-05-30T21:09:28.302Z,4.03
2019-05-30T21:11:52.593Z,4.20
2019-05-30T21:14:27.187Z,4.20
2019-05-30T21:17:14.996Z,4.40
2019-05-30T21:19:46.017Z,3.83
2019-05-30T21:22:16.302Z,3.93
2019-05-30T21:24:47.053Z,4.00
2019-05-30T21:27:17.037Z,4.30
2019-05-30T21:29:47.640Z,4.07
2019-05-30T21:32:17.827Z,4.10
2019-05-30T21:34:48.600Z,4.60
2019-05-30T21:37:18.757Z,3.90
2019-05-30T21:39:48.505Z,4.27
2019-05-30T21:42:18.423Z,3.87
2019-05-30T21:44:52.373Z,4.10
2019-05-30T21:47:20.546Z,4.60
2019-05-30T21:49:50.476Z,3.70
2019-05-30T21:52:20.265Z,4.10
2019-05-30T21:54:50.743Z,4.20
2019-05-30T21:57:20.505Z,3.67
2019-05-30T21:59:50.801Z,4.10
2019-05-30T22:02:21.146Z,4.00
2019-05-30T22:04:51.251Z,4.07
2019-05-30T22:07:21.378Z,4.20
2019-05-30T22:09:51.558Z,3.90
2019-05-30T22:12:21.655Z,3.97
2019-05-30T22:14:51.990Z,3.73
2019-05-30T22:17:22.228Z,3.50
2019-05-30T22:19:52.285Z,6.50
2019-05-30T22:22:22.110Z,7.43
2019-05-30T22:24:52.390Z,4.50
2019-05-30T22:27:22.346Z,3.90
2019-05-30T22:29:52.682Z,3.57
2019-05-30T22:32:22.599Z,5.73
2019-05-30T22:34:52.989Z,3.97
2019-05-30T22:37:22.974Z,3.00
2019-05-30T22:39:53.073Z,3.17
2019-05-30T22:42:22.978Z,3.73
2019-05-30T22:44:52.666Z,3.70
2019-05-30T22:47:22.486Z,3.20
2019-05-30T22:49:52.946Z,2.60
2019-05-30T22:52:22.980Z,3.20
2019-05-30T22:54:53.241Z,3.43
2019-05-30T22:57:23.061Z,3.17
2019-05-30T22:59:53.081Z,3.57
2019-05-30T23:02:22.984Z,4.20
2019-05-30T23:04:52.720Z,3.47
2019-05-30T23:07:22.990Z,3.80
2019-05-30T23:09:53.964Z,3.10
2019-05-30T23:12:24.536Z,3.30
2019-05-30T23:14:56.309Z,3.00
2019-05-30T23:17:26.862Z,4.00
2019-05-30T23:19:56.933Z,3.47
2019-05-30T23:22:26.815Z,3.03
2019-05-30T23:24:57.530Z,3.60
2019-05-30T23:27:27.392Z,3.60
2019-05-30T23:29:58.031Z,3.43
2019-05-30T23:32:28.181Z,3.63
2019-05-30T23:34:58.657Z,3.70
2019-05-30T23:37:28.468Z,3.27
2019-05-30T23:39:58.954Z,3.80
2019-05-30T23:42:28.937Z,3.23
2019-05-30T23:44:59.613Z,3.47
2019-05-30T23:47:29.643Z,3.80
2019-05-30T23:50:18.938Z,3.53
2019-05-30T23:52:49.949Z,3.80
2019-05-30T23:55:19.966Z,3.10
2019-05-30T23:57:50.333Z,3.30
